sensor_id;sensor_type;location;lat;lon;timestamp;P1;durP1;ratioP1;P2;durP2;ratioP2
62056;SDS011;48016;50.284;18.860;2023-06-22T00:01:56;12.70;;;9.10;;
62056;SDS011;48016;50.284;18.860;2023-06-22T00:04:22;13.20;;;9.30;;
62056;SDS011;48016;50.284;18.860;2023-06-22T00:06:48;12.70;;;8.90;;
62056;SDS011;48016;50.284;18.860;2023-06-22T00:09:14;13.20;;;9.10;;
62056;SDS011;48016;50.284;18.860;2023-06-22T00:11:39;14.10;;;9.10;;
62056;SDS011;48016;50.284;18.860;2023-06-22T00:14:05;14.10;;;9.20;;
62056;SDS011;48016;50.284;18.860;2023-06-22T00:16:31;11.80;;;9.00;;
62056;SDS011;48016;50.284;18.860;2023-06-22T00:18:58;14.50;;;9.60;;
62056;SDS011;48016;50.284;18.860;2023-06-22T00:21:26;14.80;;;9.90;;
62056;SDS011;48016;50.284;18.860;2023-06-22T00:23:52;14.30;;;9.50;;
62056;SDS011;48016;50.284;18.860;2023-06-22T00:26:18;14.10;;;9.60;;
62056;SDS011;48016;50.284;18.860;2023-06-22T00:28:45;12.40;;;9.60;;
62056;SDS011;48016;50.284;18.860;2023-06-22T00:31:10;13.40;;;9.30;;
62056;SDS011;48016;50.284;18.860;2023-06-22T00:33:36;12.50;;;9.40;;
62056;SDS011;48016;50.284;18.860;2023-06-22T00:36:02;14.70;;;9.90;;
62056;SDS011;48016;50.284;18.860;2023-06-22T00:38:28;14.80;;;9.10;;
62056;SDS011;48016;50.284;18.860;2023-06-22T00:40:54;13.40;;;9.90;;
62056;SDS011;48016;50.284;18.860;2023-06-22T00:43:20;11.80;;;9.50;;
62056;SDS011;48016;50.284;18.860;2023-06-22T00:45:46;13.90;;;9.40;;
62056;SDS011;48016;50.284;18.860;2023-06-22T00:48:13;11.80;;;8.70;;
62056;SDS011;48016;50.284;18.860;2023-06-22T00:50:40;11.70;;;8.90;;
62056;SDS011;48016;50.284;18.860;2023-06-22T00:53:07;14.20;;;9.60;;
62056;SDS011;48016;50.284;18.860;2023-06-22T00:55:37;14.40;;;9.40;;
62056;SDS011;48016;50.284;18.860;2023-06-22T00:58:08;14.10;;;9.30;;
62056;SDS011;48016;50.284;18.860;2023-06-22T01:03:02;13.70;;;8.10;;
62056;SDS011;48016;50.284;18.860;2023-06-22T01:05:29;15.70;;;8.80;;
62056;SDS011;48016;50.284;18.860;2023-06-22T01:13:45;13.70;;;8.50;;
62056;SDS011;48016;50.284;18.860;2023-06-22T01:16:21;11.40;;;8.10;;
62056;SDS011;48016;50.284;18.860;2023-06-22T01:18:52;11.40;;;7.90;;
62056;SDS011;48016;50.284;18.860;2023-06-22T01:21:20;10.80;;;7.90;;
62056;SDS011;48016;50.284;18.860;2023-06-22T01:24:02;12.70;;;8.20;;
62056;SDS011;48016;50.284;18.860;2023-06-22T01:26:43;10.50;;;6.90;;
62056;SDS011;48016;50.284;18.860;2023-06-22T01:29:13;13.70;;;8.60;;
62056;SDS011;48016;50.284;18.860;2023-06-22T01:31:41;10.00;;;7.00;;
62056;SDS011;48016;50.284;18.860;2023-06-22T01:34:09;12.80;;;7.10;;
62056;SDS011;48016;50.284;18.860;2023-06-22T01:36:36;14.40;;;6.50;;
62056;SDS011;48016;50.284;18.860;2023-06-22T01:39:04;13.00;;;6.90;;
62056;SDS011;48016;50.284;18.860;2023-06-22T01:41:33;10.10;;;6.80;;
62056;SDS011;48016;50.284;18.860;2023-06-22T01:44:01;11.80;;;6.70;;
62056;SDS011;48016;50.284;18.860;2023-06-22T01:46:30;10.10;;;6.50;;
62056;SDS011;48016;50.284;18.860;2023-06-22T01:48:57;10.00;;;7.10;;
62056;SDS011;48016;50.284;18.860;2023-06-22T01:51:23;8.20;;;6.30;;
62056;SDS011;48016;50.284;18.860;2023-06-22T01:53:49;9.10;;;6.80;;
62056;SDS011;48016;50.284;18.860;2023-06-22T01:56:16;10.20;;;6.30;;
62056;SDS011;48016;50.284;18.860;2023-06-22T01:58:46;13.00;;;7.40;;
62056;SDS011;48016;50.284;18.860;2023-06-22T02:01:17;11.80;;;6.70;;
62056;SDS011;48016;50.284;18.860;2023-06-22T02:03:57;13.60;;;7.20;;
62056;SDS011;48016;50.284;18.860;2023-06-22T02:06:35;15.40;;;6.50;;
62056;SDS011;48016;50.284;18.860;2023-06-22T02:09:06;11.40;;;7.30;;
62056;SDS011;48016;50.284;18.860;2023-06-22T02:11:36;13.00;;;7.00;;
62056;SDS011;48016;50.284;18.860;2023-06-22T02:16:30;14.30;;;7.20;;
62056;SDS011;48016;50.284;18.860;2023-06-22T02:18:57;12.10;;;6.60;;
62056;SDS011;48016;50.284;18.860;2023-06-22T02:21:29;9.70;;;6.20;;
62056;SDS011;48016;50.284;18.860;2023-06-22T02:23:56;9.80;;;6.20;;
62056;SDS011;48016;50.284;18.860;2023-06-22T02:26:22;12.30;;;7.20;;
62056;SDS011;48016;50.284;18.860;2023-06-22T02:28:50;13.10;;;7.30;;
62056;SDS011;48016;50.284;18.860;2023-06-22T02:31:16;12.20;;;6.90;;
62056;SDS011;48016;50.284;18.860;2023-06-22T02:33:42;10.60;;;6.40;;
62056;SDS011;48016;50.284;18.860;2023-06-22T02:36:09;14.00;;;6.90;;
62056;SDS011;48016;50.284;18.860;2023-06-22T02:38:40;10.40;;;7.00;;
62056;SDS011;48016;50.284;18.860;2023-06-22T02:41:11;13.40;;;7.60;;
62056;SDS011;48016;50.284;18.860;2023-06-22T02:43:38;12.70;;;7.20;;
62056;SDS011;48016;50.284;18.860;2023-06-22T02:46:04;11.90;;;7.10;;
62056;SDS011;48016;50.284;18.860;2023-06-22T02:48:30;15.00;;;6.80;;
62056;SDS011;48016;50.284;18.860;2023-06-22T02:50:56;14.10;;;7.50;;
62056;SDS011;48016;50.284;18.860;2023-06-22T02:53:22;13.20;;;7.50;;
62056;SDS011;48016;50.284;18.860;2023-06-22T02:55:47;12.60;;;7.30;;
62056;SDS011;48016;50.284;18.860;2023-06-22T02:58:13;11.30;;;7.10;;
62056;SDS011;48016;50.284;18.860;2023-06-22T03:00:39;13.20;;;7.10;;
62056;SDS011;48016;50.284;18.860;2023-06-22T03:03:05;11.70;;;7.40;;
62056;SDS011;48016;50.284;18.860;2023-06-22T03:05:31;11.20;;;6.90;;
62056;SDS011;48016;50.284;18.860;2023-06-22T03:07:58;14.60;;;6.90;;
62056;SDS011;48016;50.284;18.860;2023-06-22T03:10:24;14.00;;;8.10;;
62056;SDS011;48016;50.284;18.860;2023-06-22T03:12:50;12.90;;;7.50;;
62056;SDS011;48016;50.284;18.860;2023-06-22T03:15:16;11.30;;;7.30;;
62056;SDS011;48016;50.284;18.860;2023-06-22T03:17:42;13.10;;;6.60;;
62056;SDS011;48016;50.284;18.860;2023-06-22T03:20:09;11.50;;;7.20;;
62056;SDS011;48016;50.284;18.860;2023-06-22T03:22:36;12.40;;;7.90;;
62056;SDS011;48016;50.284;18.860;2023-06-22T03:25:03;12.40;;;7.40;;
62056;SDS011;48016;50.284;18.860;2023-06-22T03:27:29;13.20;;;7.40;;
62056;SDS011;48016;50.284;18.860;2023-06-22T03:29:56;11.60;;;7.40;;
62056;SDS011;48016;50.284;18.860;2023-06-22T03:32:23;16.40;;;8.00;;
62056;SDS011;48016;50.284;18.860;2023-06-22T03:34:49;15.70;;;8.00;;
62056;SDS011;48016;50.284;18.860;2023-06-22T03:37:15;13.60;;;7.30;;
62056;SDS011;48016;50.284;18.860;2023-06-22T03:39:41;11.80;;;6.80;;
62056;SDS011;48016;50.284;18.860;2023-06-22T03:42:07;13.00;;;7.60;;
62056;SDS011;48016;50.284;18.860;2023-06-22T03:44:34;11.70;;;7.20;;
62056;SDS011;48016;50.284;18.860;2023-06-22T03:47:05;14.70;;;7.30;;
62056;SDS011;48016;50.284;18.860;2023-06-22T03:49:33;10.20;;;7.10;;
62056;SDS011;48016;50.284;18.860;2023-06-22T03:52:00;12.70;;;7.40;;
62056;SDS011;48016;50.284;18.860;2023-06-22T03:54:30;12.80;;;7.10;;
62056;SDS011;48016;50.284;18.860;2023-06-22T03:56:56;9.40;;;6.90;;
62056;SDS011;48016;50.284;18.860;2023-06-22T03:59:23;9.40;;;6.80;;
62056;SDS011;48016;50.284;18.860;2023-06-22T04:01:50;13.10;;;7.10;;
62056;SDS011;48016;50.284;18.860;2023-06-22T04:04:19;10.40;;;7.70;;
62056;SDS011;48016;50.284;18.860;2023-06-22T04:06:45;13.50;;;7.40;;
62056;SDS011;48016;50.284;18.860;2023-06-22T04:09:11;11.00;;;7.60;;
62056;SDS011;48016;50.284;18.860;2023-06-22T04:11:37;11.30;;;7.40;;
62056;SDS011;48016;50.284;18.860;2023-06-22T04:14:03;13.80;;;7.90;;
62056;SDS011;48016;50.284;18.860;2023-06-22T04:16:29;10.80;;;8.50;;
62056;SDS011;48016;50.284;18.860;2023-06-22T04:18:55;12.70;;;8.70;;
62056;SDS011;48016;50.284;18.860;2023-06-22T04:21:21;17.00;;;10.40;;
62056;SDS011;48016;50.284;18.860;2023-06-22T04:23:47;15.30;;;10.50;;
62056;SDS011;48016;50.284;18.860;2023-06-22T04:26:13;16.10;;;11.50;;
62056;SDS011;48016;50.284;18.860;2023-06-22T04:28:40;20.70;;;13.90;;
62056;SDS011;48016;50.284;18.860;2023-06-22T04:33:32;18.50;;;13.80;;
62056;SDS011;48016;50.284;18.860;2023-06-22T04:35:58;16.50;;;13.90;;
62056;SDS011;48016;50.284;18.860;2023-06-22T04:38:27;17.00;;;14.40;;
62056;SDS011;48016;50.284;18.860;2023-06-22T04:40:53;22.20;;;14.70;;
62056;SDS011;48016;50.284;18.860;2023-06-22T04:43:19;20.00;;;15.80;;
62056;SDS011;48016;50.284;18.860;2023-06-22T04:45:45;25.10;;;16.80;;
62056;SDS011;48016;50.284;18.860;2023-06-22T04:48:11;22.20;;;17.70;;
62056;SDS011;48016;50.284;18.860;2023-06-22T04:50:41;22.60;;;17.50;;
62056;SDS011;48016;50.284;18.860;2023-06-22T04:53:07;21.50;;;18.30;;
62056;SDS011;48016;50.284;18.860;2023-06-22T04:55:38;22.60;;;20.10;;
62056;SDS011;48016;50.284;18.860;2023-06-22T04:58:07;24.10;;;18.60;;
62056;SDS011;48016;50.284;18.860;2023-06-22T05:00:33;26.00;;;20.50;;
62056;SDS011;48016;50.284;18.860;2023-06-22T05:03:01;23.60;;;19.90;;
62056;SDS011;48016;50.284;18.860;2023-06-22T05:05:29;23.90;;;20.50;;
62056;SDS011;48016;50.284;18.860;2023-06-22T05:07:56;26.00;;;21.00;;
62056;SDS011;48016;50.284;18.860;2023-06-22T05:10:25;23.60;;;20.50;;
62056;SDS011;48016;50.284;18.860;2023-06-22T05:12:51;22.80;;;20.00;;
62056;SDS011;48016;50.284;18.860;2023-06-22T05:15:17;22.50;;;18.80;;
62056;SDS011;48016;50.284;18.860;2023-06-22T05:17:45;21.30;;;19.00;;
62056;SDS011;48016;50.284;18.860;2023-06-22T05:20:11;20.70;;;18.50;;
62056;SDS011;48016;50.284;18.860;2023-06-22T05:22:41;20.90;;;17.80;;
62056;SDS011;48016;50.284;18.860;2023-06-22T05:25:09;20.50;;;18.30;;
62056;SDS011;48016;50.284;18.860;2023-06-22T05:27:36;23.40;;;19.60;;
62056;SDS011;48016;50.284;18.860;2023-06-22T05:30:06;21.20;;;19.20;;
62056;SDS011;48016;50.284;18.860;2023-06-22T05:32:32;22.50;;;20.20;;
62056;SDS011;48016;50.284;18.860;2023-06-22T05:34:59;21.70;;;19.70;;
62056;SDS011;48016;50.284;18.860;2023-06-22T05:37:25;21.40;;;19.20;;
62056;SDS011;48016;50.284;18.860;2023-06-22T05:39:51;22.30;;;20.10;;
62056;SDS011;48016;50.284;18.860;2023-06-22T05:42:17;21.90;;;19.80;;
62056;SDS011;48016;50.284;18.860;2023-06-22T05:44:43;21.80;;;19.70;;
62056;SDS011;48016;50.284;18.860;2023-06-22T05:47:09;21.70;;;19.60;;
62056;SDS011;48016;50.284;18.860;2023-06-22T05:49:35;22.10;;;19.90;;
62056;SDS011;48016;50.284;18.860;2023-06-22T05:52:01;21.70;;;19.60;;
62056;SDS011;48016;50.284;18.860;2023-06-22T05:54:27;23.00;;;20.70;;
62056;SDS011;48016;50.284;18.860;2023-06-22T05:56:53;19.30;;;17.40;;
62056;SDS011;48016;50.284;18.860;2023-06-22T05:59:19;22.00;;;19.80;;
62056;SDS011;48016;50.284;18.860;2023-06-22T06:01:45;21.80;;;19.60;;
62056;SDS011;48016;50.284;18.860;2023-06-22T06:04:18;21.40;;;19.30;;
62056;SDS011;48016;50.284;18.860;2023-06-22T06:06:44;20.80;;;18.70;;
62056;SDS011;48016;50.284;18.860;2023-06-22T06:09:13;20.20;;;18.10;;
62056;SDS011;48016;50.284;18.860;2023-06-22T06:11:41;20.80;;;18.70;;
62056;SDS011;48016;50.284;18.860;2023-06-22T06:14:07;21.50;;;19.30;;
62056;SDS011;48016;50.284;18.860;2023-06-22T06:16:33;22.40;;;18.90;;
62056;SDS011;48016;50.284;18.860;2023-06-22T06:18:59;20.10;;;18.10;;
62056;SDS011;48016;50.284;18.860;2023-06-22T06:21:25;19.90;;;17.90;;
62056;SDS011;48016;50.284;18.860;2023-06-22T06:23:51;19.60;;;17.70;;
62056;SDS011;48016;50.284;18.860;2023-06-22T06:26:18;18.20;;;16.50;;
62056;SDS011;48016;50.284;18.860;2023-06-22T06:28:53;17.60;;;16.00;;
62056;SDS011;48016;50.284;18.860;2023-06-22T06:31:20;17.70;;;16.10;;
62056;SDS011;48016;50.284;18.860;2023-06-22T06:33:46;16.80;;;15.10;;
62056;SDS011;48016;50.284;18.860;2023-06-22T06:36:12;16.60;;;15.00;;
62056;SDS011;48016;50.284;18.860;2023-06-22T06:38:38;14.60;;;13.20;;
62056;SDS011;48016;50.284;18.860;2023-06-22T06:41:04;15.60;;;14.10;;
62056;SDS011;48016;50.284;18.860;2023-06-22T06:43:30;14.50;;;13.10;;
62056;SDS011;48016;50.284;18.860;2023-06-22T06:45:56;13.90;;;12.50;;
62056;SDS011;48016;50.284;18.860;2023-06-22T06:48:22;14.00;;;12.20;;
62056;SDS011;48016;50.284;18.860;2023-06-22T06:50:47;14.90;;;13.50;;
62056;SDS011;48016;50.284;18.860;2023-06-22T06:53:13;14.50;;;13.10;;
62056;SDS011;48016;50.284;18.860;2023-06-22T06:55:39;12.20;;;11.00;;
62056;SDS011;48016;50.284;18.860;2023-06-22T06:58:05;11.80;;;10.60;;
62056;SDS011;48016;50.284;18.860;2023-06-22T07:00:33;12.80;;;11.50;;
62056;SDS011;48016;50.284;18.860;2023-06-22T07:02:59;12.30;;;11.20;;
62056;SDS011;48016;50.284;18.860;2023-06-22T07:05:25;13.20;;;10.20;;
62056;SDS011;48016;50.284;18.860;2023-06-22T07:07:51;14.00;;;11.30;;
62056;SDS011;48016;50.284;18.860;2023-06-22T07:10:18;12.40;;;11.20;;
62056;SDS011;48016;50.284;18.860;2023-06-22T07:12:44;12.50;;;11.00;;
62056;SDS011;48016;50.284;18.860;2023-06-22T07:15:10;12.60;;;10.70;;
62056;SDS011;48016;50.284;18.860;2023-06-22T07:17:38;12.60;;;11.30;;
62056;SDS011;48016;50.284;18.860;2023-06-22T07:20:06;12.40;;;11.20;;
62056;SDS011;48016;50.284;18.860;2023-06-22T07:22:37;12.20;;;11.00;;
62056;SDS011;48016;50.284;18.860;2023-06-22T07:25:04;12.40;;;11.10;;
62056;SDS011;48016;50.284;18.860;2023-06-22T07:27:38;12.80;;;11.30;;
62056;SDS011;48016;50.284;18.860;2023-06-22T07:30:08;11.80;;;10.70;;
62056;SDS011;48016;50.284;18.860;2023-06-22T07:32:35;11.50;;;10.40;;
62056;SDS011;48016;50.284;18.860;2023-06-22T07:35:01;12.10;;;10.90;;
62056;SDS011;48016;50.284;18.860;2023-06-22T07:39:54;12.70;;;10.80;;
62056;SDS011;48016;50.284;18.860;2023-06-22T07:42:26;13.70;;;11.40;;
62056;SDS011;48016;50.284;18.860;2023-06-22T07:44:53;11.80;;;10.60;;
62056;SDS011;48016;50.284;18.860;2023-06-22T07:47:20;12.60;;;11.20;;
62056;SDS011;48016;50.284;18.860;2023-06-22T07:49:50;12.40;;;10.50;;
62056;SDS011;48016;50.284;18.860;2023-06-22T07:52:16;14.70;;;11.30;;
62056;SDS011;48016;50.284;18.860;2023-06-22T07:54:42;11.80;;;10.60;;
62056;SDS011;48016;50.284;18.860;2023-06-22T07:57:08;10.80;;;9.70;;
62056;SDS011;48016;50.284;18.860;2023-06-22T07:59:34;11.40;;;10.00;;
62056;SDS011;48016;50.284;18.860;2023-06-22T08:02:00;12.40;;;10.00;;
62056;SDS011;48016;50.284;18.860;2023-06-22T08:04:28;10.20;;;9.10;;
62056;SDS011;48016;50.284;18.860;2023-06-22T08:06:56;10.80;;;9.70;;
62056;SDS011;48016;50.284;18.860;2023-06-22T08:09:22;10.90;;;9.80;;
62056;SDS011;48016;50.284;18.860;2023-06-22T08:11:48;10.50;;;9.40;;
62056;SDS011;48016;50.284;18.860;2023-06-22T08:14:14;9.70;;;8.70;;
62056;SDS011;48016;50.284;18.860;2023-06-22T08:16:41;10.70;;;8.90;;
62056;SDS011;48016;50.284;18.860;2023-06-22T08:19:07;11.30;;;9.60;;
62056;SDS011;48016;50.284;18.860;2023-06-22T08:21:33;11.60;;;9.30;;
62056;SDS011;48016;50.284;18.860;2023-06-22T08:23:59;10.30;;;9.30;;
62056;SDS011;48016;50.284;18.860;2023-06-22T08:26:25;10.30;;;9.30;;
62056;SDS011;48016;50.284;18.860;2023-06-22T08:28:51;13.20;;;9.80;;
62056;SDS011;48016;50.284;18.860;2023-06-22T08:31:18;10.00;;;9.00;;
62056;SDS011;48016;50.284;18.860;2023-06-22T08:33:44;11.60;;;10.40;;
62056;SDS011;48016;50.284;18.860;2023-06-22T08:36:11;12.90;;;9.90;;
62056;SDS011;48016;50.284;18.860;2023-06-22T08:38:38;10.00;;;8.80;;
62056;SDS011;48016;50.284;18.860;2023-06-22T08:41:04;13.70;;;9.80;;
62056;SDS011;48016;50.284;18.860;2023-06-22T08:43:30;11.50;;;10.10;;
62056;SDS011;48016;50.284;18.860;2023-06-22T08:45:56;10.80;;;9.70;;
62056;SDS011;48016;50.284;18.860;2023-06-22T08:48:22;23.60;;;11.00;;
62056;SDS011;48016;50.284;18.860;2023-06-22T08:50:48;13.50;;;9.90;;
62056;SDS011;48016;50.284;18.860;2023-06-22T08:53:14;10.50;;;9.50;;
62056;SDS011;48016;50.284;18.860;2023-06-22T08:55:40;11.10;;;10.00;;
62056;SDS011;48016;50.284;18.860;2023-06-22T08:58:05;10.60;;;9.40;;
62056;SDS011;48016;50.284;18.860;2023-06-22T09:00:32;9.90;;;8.90;;
62056;SDS011;48016;50.284;18.860;2023-06-22T09:03:00;11.40;;;10.10;;
62056;SDS011;48016;50.284;18.860;2023-06-22T09:05:26;10.50;;;9.40;;
62056;SDS011;48016;50.284;18.860;2023-06-22T09:07:52;13.20;;;10.50;;
62056;SDS011;48016;50.284;18.860;2023-06-22T09:10:20;10.60;;;9.60;;
62056;SDS011;48016;50.284;18.860;2023-06-22T09:12:46;9.80;;;8.80;;
62056;SDS011;48016;50.284;18.860;2023-06-22T09:15:12;10.70;;;9.70;;
62056;SDS011;48016;50.284;18.860;2023-06-22T09:17:38;10.50;;;9.40;;
62056;SDS011;48016;50.284;18.860;2023-06-22T09:20:04;10.00;;;8.90;;
62056;SDS011;48016;50.284;18.860;2023-06-22T09:22:31;10.00;;;8.50;;
62056;SDS011;48016;50.284;18.860;2023-06-22T09:24:58;10.00;;;8.90;;
62056;SDS011;48016;50.284;18.860;2023-06-22T09:27:25;10.30;;;9.30;;
62056;SDS011;48016;50.284;18.860;2023-06-22T09:29:51;10.50;;;9.50;;
62056;SDS011;48016;50.284;18.860;2023-06-22T09:32:17;9.50;;;8.60;;
62056;SDS011;48016;50.284;18.860;2023-06-22T09:34:43;10.10;;;9.10;;
62056;SDS011;48016;50.284;18.860;2023-06-22T09:37:08;9.80;;;8.70;;
62056;SDS011;48016;50.284;18.860;2023-06-22T09:39:34;12.10;;;8.80;;
62056;SDS011;48016;50.284;18.860;2023-06-22T09:42:01;10.10;;;9.10;;
62056;SDS011;48016;50.284;18.860;2023-06-22T09:44:27;10.30;;;9.30;;
62056;SDS011;48016;50.284;18.860;2023-06-22T09:46:53;9.90;;;8.90;;
62056;SDS011;48016;50.284;18.860;2023-06-22T09:49:19;9.60;;;8.60;;
62056;SDS011;48016;50.284;18.860;2023-06-22T09:51:45;9.60;;;8.60;;
62056;SDS011;48016;50.284;18.860;2023-06-22T09:54:11;11.70;;;9.60;;
62056;SDS011;48016;50.284;18.860;2023-06-22T09:56:37;10.70;;;9.20;;
62056;SDS011;48016;50.284;18.860;2023-06-22T09:59:03;11.30;;;9.70;;
62056;SDS011;48016;50.284;18.860;2023-06-22T10:01:29;10.10;;;9.10;;
62056;SDS011;48016;50.284;18.860;2023-06-22T10:03:55;10.90;;;9.70;;
62056;SDS011;48016;50.284;18.860;2023-06-22T10:06:22;11.10;;;9.70;;
62056;SDS011;48016;50.284;18.860;2023-06-22T10:08:49;10.30;;;9.20;;
62056;SDS011;48016;50.284;18.860;2023-06-22T10:11:15;10.40;;;9.30;;
62056;SDS011;48016;50.284;18.860;2023-06-22T10:13:41;9.40;;;8.60;;
62056;SDS011;48016;50.284;18.860;2023-06-22T10:16:07;11.70;;;10.00;;
62056;SDS011;48016;50.284;18.860;2023-06-22T10:18:33;10.10;;;9.20;;
62056;SDS011;48016;50.284;18.860;2023-06-22T10:20:59;11.40;;;10.20;;
62056;SDS011;48016;50.284;18.860;2023-06-22T10:25:51;10.70;;;9.40;;
62056;SDS011;48016;50.284;18.860;2023-06-22T10:28:17;10.50;;;9.40;;
62056;SDS011;48016;50.284;18.860;2023-06-22T10:30:43;10.60;;;9.50;;
62056;SDS011;48016;50.284;18.860;2023-06-22T10:33:10;11.10;;;9.90;;
62056;SDS011;48016;50.284;18.860;2023-06-22T10:35:37;11.80;;;10.00;;
62056;SDS011;48016;50.284;18.860;2023-06-22T10:38:03;10.80;;;9.80;;
62056;SDS011;48016;50.284;18.860;2023-06-22T10:40:30;11.00;;;9.90;;
62056;SDS011;48016;50.284;18.860;2023-06-22T10:42:55;11.00;;;9.20;;
62056;SDS011;48016;50.284;18.860;2023-06-22T10:45:21;11.10;;;9.30;;
62056;SDS011;48016;50.284;18.860;2023-06-22T10:47:47;10.30;;;9.20;;
62056;SDS011;48016;50.284;18.860;2023-06-22T10:50:13;10.30;;;9.30;;
62056;SDS011;48016;50.284;18.860;2023-06-22T10:52:39;12.20;;;9.70;;
62056;SDS011;48016;50.284;18.860;2023-06-22T10:55:08;10.00;;;9.00;;
62056;SDS011;48016;50.284;18.860;2023-06-22T10:57:34;12.50;;;9.00;;
62056;SDS011;48016;50.284;18.860;2023-06-22T11:00:00;10.30;;;9.30;;
62056;SDS011;48016;50.284;18.860;2023-06-22T11:02:26;12.10;;;9.60;;
62056;SDS011;48016;50.284;18.860;2023-06-22T11:04:53;10.90;;;9.80;;
62056;SDS011;48016;50.284;18.860;2023-06-22T11:07:19;10.00;;;9.00;;
62056;SDS011;48016;50.284;18.860;2023-06-22T11:09:45;10.40;;;9.30;;
62056;SDS011;48016;50.284;18.860;2023-06-22T11:12:11;9.70;;;8.70;;
62056;SDS011;48016;50.284;18.860;2023-06-22T11:14:38;10.40;;;9.40;;
62056;SDS011;48016;50.284;18.860;2023-06-22T11:17:05;10.10;;;9.10;;
62056;SDS011;48016;50.284;18.860;2023-06-22T11:19:31;9.80;;;8.80;;
62056;SDS011;48016;50.284;18.860;2023-06-22T11:21:56;9.60;;;8.70;;
62056;SDS011;48016;50.284;18.860;2023-06-22T11:24:22;10.90;;;9.90;;
62056;SDS011;48016;50.284;18.860;2023-06-22T11:26:48;9.90;;;8.90;;
62056;SDS011;48016;50.284;18.860;2023-06-22T11:29:14;10.80;;;9.70;;
62056;SDS011;48016;50.284;18.860;2023-06-22T11:31:40;10.20;;;9.20;;
62056;SDS011;48016;50.284;18.860;2023-06-22T11:34:08;9.90;;;8.80;;
62056;SDS011;48016;50.284;18.860;2023-06-22T11:36:34;13.30;;;10.20;;
62056;SDS011;48016;50.284;18.860;2023-06-22T11:39:01;10.10;;;9.10;;
62056;SDS011;48016;50.284;18.860;2023-06-22T11:41:27;10.20;;;9.20;;
62056;SDS011;48016;50.284;18.860;2023-06-22T11:43:53;9.80;;;8.90;;
62056;SDS011;48016;50.284;18.860;2023-06-22T11:46:19;10.10;;;9.10;;
62056;SDS011;48016;50.284;18.860;2023-06-22T11:48:46;9.30;;;8.50;;
62056;SDS011;48016;50.284;18.860;2023-06-22T11:51:11;9.10;;;8.20;;
62056;SDS011;48016;50.284;18.860;2023-06-22T11:53:37;9.50;;;8.50;;
62056;SDS011;48016;50.284;18.860;2023-06-22T11:56:03;9.00;;;7.90;;
62056;SDS011;48016;50.284;18.860;2023-06-22T11:58:29;9.50;;;8.60;;
62056;SDS011;48016;50.284;18.860;2023-06-22T12:00:55;11.30;;;8.20;;
62056;SDS011;48016;50.284;18.860;2023-06-22T12:03:21;12.60;;;9.00;;
62056;SDS011;48016;50.284;18.860;2023-06-22T12:05:47;13.90;;;9.60;;
62056;SDS011;48016;50.284;18.860;2023-06-22T12:08:16;9.50;;;8.60;;
62056;SDS011;48016;50.284;18.860;2023-06-22T12:10:41;9.70;;;8.80;;
62056;SDS011;48016;50.284;18.860;2023-06-22T12:13:07;10.20;;;9.20;;
62056;SDS011;48016;50.284;18.860;2023-06-22T12:15:33;12.40;;;9.00;;
62056;SDS011;48016;50.284;18.860;2023-06-22T12:17:59;11.70;;;8.60;;
62056;SDS011;48016;50.284;18.860;2023-06-22T12:20:26;11.80;;;8.90;;
62056;SDS011;48016;50.284;18.860;2023-06-22T12:22:52;9.10;;;8.30;;
62056;SDS011;48016;50.284;18.860;2023-06-22T12:25:19;10.90;;;8.10;;
62056;SDS011;48016;50.284;18.860;2023-06-22T12:27:45;9.60;;;8.70;;
62056;SDS011;48016;50.284;18.860;2023-06-22T12:30:11;8.90;;;7.90;;
62056;SDS011;48016;50.284;18.860;2023-06-22T12:32:37;9.60;;;8.20;;
62056;SDS011;48016;50.284;18.860;2023-06-22T12:35:03;8.80;;;8.00;;
62056;SDS011;48016;50.284;18.860;2023-06-22T12:39:57;10.00;;;9.00;;
62056;SDS011;48016;50.284;18.860;2023-06-22T12:42:23;9.80;;;8.80;;
62056;SDS011;48016;50.284;18.860;2023-06-22T12:44:48;9.10;;;8.10;;
62056;SDS011;48016;50.284;18.860;2023-06-22T12:47:14;9.60;;;8.70;;
62056;SDS011;48016;50.284;18.860;2023-06-22T12:49:40;9.40;;;8.50;;
62056;SDS011;48016;50.284;18.860;2023-06-22T12:52:09;8.40;;;7.70;;
62056;SDS011;48016;50.284;18.860;2023-06-22T12:54:38;9.90;;;7.80;;
62056;SDS011;48016;50.284;18.860;2023-06-22T12:57:04;9.30;;;8.40;;
62056;SDS011;48016;50.284;18.860;2023-06-22T12:59:30;10.70;;;8.20;;
62056;SDS011;48016;50.284;18.860;2023-06-22T13:01:56;9.70;;;8.80;;
62056;SDS011;48016;50.284;18.860;2023-06-22T13:04:22;10.40;;;8.20;;
62056;SDS011;48016;50.284;18.860;2023-06-22T13:06:48;9.00;;;8.20;;
62056;SDS011;48016;50.284;18.860;2023-06-22T13:09:14;9.90;;;7.70;;
62056;SDS011;48016;50.284;18.860;2023-06-22T13:11:42;9.90;;;9.00;;
62056;SDS011;48016;50.284;18.860;2023-06-22T13:14:08;9.00;;;8.10;;
62056;SDS011;48016;50.284;18.860;2023-06-22T13:16:34;8.70;;;7.80;;
62056;SDS011;48016;50.284;18.860;2023-06-22T13:19:00;8.90;;;8.00;;
62056;SDS011;48016;50.284;18.860;2023-06-22T13:21:26;9.80;;;8.80;;
62056;SDS011;48016;50.284;18.860;2023-06-22T13:23:52;9.40;;;8.20;;
62056;SDS011;48016;50.284;18.860;2023-06-22T13:26:17;9.90;;;8.90;;
62056;SDS011;48016;50.284;18.860;2023-06-22T13:28:43;12.30;;;10.10;;
62056;SDS011;48016;50.284;18.860;2023-06-22T13:31:09;9.80;;;8.80;;
62056;SDS011;48016;50.284;18.860;2023-06-22T13:33:37;10.20;;;9.10;;
62056;SDS011;48016;50.284;18.860;2023-06-22T13:36:03;11.40;;;8.40;;
62056;SDS011;48016;50.284;18.860;2023-06-22T13:38:31;9.50;;;8.60;;
62056;SDS011;48016;50.284;18.860;2023-06-22T13:40:57;10.30;;;7.50;;
62056;SDS011;48016;50.284;18.860;2023-06-22T13:43:26;8.80;;;8.00;;
62056;SDS011;48016;50.284;18.860;2023-06-22T13:45:52;10.80;;;9.70;;
62056;SDS011;48016;50.284;18.860;2023-06-22T13:48:18;9.90;;;8.10;;
62056;SDS011;48016;50.284;18.860;2023-06-22T13:50:44;10.50;;;9.10;;
62056;SDS011;48016;50.284;18.860;2023-06-22T13:53:10;12.60;;;11.40;;
62056;SDS011;48016;50.284;18.860;2023-06-22T13:55:36;11.00;;;10.00;;
62056;SDS011;48016;50.284;18.860;2023-06-22T13:58:02;11.30;;;10.20;;
62056;SDS011;48016;50.284;18.860;2023-06-22T14:00:28;12.00;;;10.60;;
62056;SDS011;48016;50.284;18.860;2023-06-22T14:02:54;12.80;;;11.50;;
62056;SDS011;48016;50.284;18.860;2023-06-22T14:05:20;12.10;;;10.10;;
62056;SDS011;48016;50.284;18.860;2023-06-22T14:07:46;11.30;;;9.90;;
62056;SDS011;48016;50.284;18.860;2023-06-22T14:10:12;10.10;;;9.10;;
62056;SDS011;48016;50.284;18.860;2023-06-22T14:12:38;9.30;;;8.40;;
62056;SDS011;48016;50.284;18.860;2023-06-22T14:15:04;8.80;;;7.90;;
62056;SDS011;48016;50.284;18.860;2023-06-22T14:17:31;8.80;;;7.40;;
62056;SDS011;48016;50.284;18.860;2023-06-22T14:19:56;8.90;;;8.00;;
62056;SDS011;48016;50.284;18.860;2023-06-22T14:22:23;9.10;;;7.90;;
62056;SDS011;48016;50.284;18.860;2023-06-22T14:24:48;11.20;;;7.70;;
62056;SDS011;48016;50.284;18.860;2023-06-22T14:27:14;7.70;;;6.90;;
62056;SDS011;48016;50.284;18.860;2023-06-22T14:29:41;9.00;;;7.90;;
62056;SDS011;48016;50.284;18.860;2023-06-22T14:32:07;9.10;;;7.60;;
62056;SDS011;48016;50.284;18.860;2023-06-22T14:34:33;9.40;;;8.50;;
62056;SDS011;48016;50.284;18.860;2023-06-22T14:37:01;9.50;;;8.20;;
62056;SDS011;48016;50.284;18.860;2023-06-22T14:41:54;9.10;;;8.20;;